Time;durP1;ratioP1;P1;durP2;ratioP2;P2;SDS_P1;SDS_P2;PMS_P1;PMS_P2;Temp;Humidity;BMP_temperature;BMP_pressure;BME280_temperature;BME280_humidity;BME280_pressure;Samples;Min_cycle;Max_cycle;Signal;HPM_P1;HPM_P2
2023/12/24 00:00:14;;;;;;;10.98;1.30;;;;;;;2.22;100.00;99511.50;5075031;28;20016;-77
2023/12/24 00:02:39;;;;;;;7.05;1.02;;;;;;;2.02;100.00;99490.44;5057385;28;20040;-77
2023/12/24 00:05:05;;;;;;;8.45;1.63;;;;;;;1.93;100.00;99491.25;5073765;28;20067;-77
2023/12/24 00:07:30;;;;;;;13.07;1.83;;;;;;;1.98;100.00;99509.28;5073501;28;20037;-77
2023/12/24 00:09:55;;;;;;;9.00;1.23;;;;;;;1.86;100.00;99500.69;5086975;28;20039;-77
2023/12/24 00:12:22;;;;;;;4.75;1.40;;;;;;;2.00;100.00;99523.97;5083802;28;20278;-77
2023/12/24 00:14:47;;;;;;;;;;;;;;;1.75;100.00;99512.16;5071667;28;20535;-76
2023/12/24 00:17:12;;;;;;;4.32;1.08;;;;;;;1.88;100.00;99525.06;5082904;28;19912;-77
2023/12/24 00:19:37;;;;;;;6.10;1.05;;;;;;;1.45;100.00;99498.13;5083166;28;20491;-77
2023/12/24 00:22:05;;;;;;;5.47;2.00;;;;;;;1.52;100.00;99508.91;5069251;28;20086;-77
2023/12/24 00:24:31;;;;;;;11.38;2.78;;;;;;;1.55;100.00;99516.56;5075389;28;20036;-77
2023/12/24 00:26:56;;;;;;;7.22;1.67;;;;;;;1.37;100.00;99500.56;5070698;28;20415;-76
2023/12/24 00:29:21;;;;;;;8.57;1.75;;;;;;;1.50;100.00;99520.53;5075674;28;20036;-77
2023/12/24 00:31:46;;;;;;;7.07;1.85;;;;;;;1.37;100.00;99513.72;5069581;28;20040;-77
2023/12/24 00:34:12;;;;;;;8.68;2.72;;;;;;;1.54;100.00;99511.41;5050946;28;20072;-77
2023/12/24 00:36:37;;;;;;;8.32;2.47;;;;;;;1.44;100.00;99503.50;5069094;28;20078;-77
2023/12/24 00:39:03;;;;;;;6.60;1.75;;;;;;;1.46;100.00;99504.19;5052758;28;20032;-77
2023/12/24 00:41:30;;;;;;;9.43;2.25;;;;;;;1.53;100.00;99505.31;5069273;28;20024;-77
2023/12/24 00:43:56;;;;;;;8.48;1.83;;;;;;;1.58;100.00;99518.91;5057927;28;20127;-77
2023/12/24 00:46:21;;;;;;;7.95;2.50;;;;;;;1.64;100.00;99507.84;5069199;28;20060;-77
2023/12/24 00:48:47;;;;;;;7.50;2.42;;;;;;;1.41;100.00;99490.63;5065378;28;20489;-77
2023/12/24 00:51:12;;;;;;;11.30;2.20;;;;;;;1.55;100.00;99499.94;5048504;28;20396;-78
2023/12/24 00:53:38;;;;;;;6.43;1.85;;;;;;;1.62;100.00;99504.53;5051789;28;20048;-78
2023/12/24 00:56:04;;;;;;;7.57;1.55;;;;;;;1.75;100.00;99506.88;5085264;28;20033;-77
2023/12/24 00:58:30;;;;;;;8.55;2.58;;;;;;;1.60;100.00;99474.88;5068657;28;20032;-79
2023/12/24 01:00:55;;;;;;;6.15;2.30;;;;;;;1.64;100.00;99481.53;5051559;28;20036;-78
2023/12/24 01:03:21;;;;;;;7.13;2.40;;;;;;;1.74;100.00;99475.47;5051665;28;20063;-78
2023/12/24 01:05:46;;;;;;;7.05;2.10;;;;;;;1.80;100.00;99477.53;5068018;28;20056;-79
2023/12/24 01:08:12;;;;;;;9.57;2.30;;;;;;;1.69;100.00;99463.53;5055917;28;20111;-80
2023/12/24 01:10:37;;;;;;;7.28;2.15;;;;;;;1.60;100.00;99456.47;5080786;28;20418;-79
2023/12/24 01:13:03;;;;;;;19.75;2.63;;;;;;;1.51;100.00;99445.94;5054198;28;20042;-79
2023/12/24 01:15:28;;;;;;;12.10;2.80;;;;;;;1.48;100.00;99461.00;5056266;28;20039;-79
2023/12/24 01:17:53;;;;;;;12.65;3.72;;;;;;;1.39;100.00;99453.09;5059353;28;20039;-79
2023/12/24 01:20:19;;;;;;;8.00;2.70;;;;;;;1.46;100.00;99465.56;5050965;28;20029;-79
2023/12/24 01:22:44;;;;;;;6.85;2.63;;;;;;;1.75;100.00;99470.03;5067373;28;20068;-79
2023/12/24 01:25:10;;;;;;;6.00;2.88;;;;;;;1.91;100.00;99466.88;5048980;28;20034;-79
2023/12/24 01:27:37;;;;;;;4.38;2.70;;;;;;;1.89;100.00;99453.84;5059509;28;20510;-79
2023/12/24 01:30:03;;;;;;;3.05;2.30;;;;;;;1.86;100.00;99442.78;5067496;28;20028;-79
2023/12/24 01:32:29;;;;;;;4.68;2.53;;;;;;;1.82;100.00;99447.47;5051120;28;20036;-79
2023/12/24 01:34:54;;;;;;;4.60;1.70;;;;;;;1.53;100.00;99423.78;5081899;28;20020;-80
2023/12/24 01:37:19;;;;;;;4.32;1.30;;;;;;;1.66;100.00;99442.78;5050423;28;20108;-80
2023/12/24 01:39:45;;;;;;;3.97;1.80;;;;;;;1.73;100.00;99453.56;5065061;28;20021;-79
2023/12/24 01:42:10;;;;;;;4.57;2.40;;;;;;;1.72;100.00;99445.81;5067176;28;20286;-79
2023/12/24 01:44:35;;;;;;;13.15;4.05;;;;;;;1.60;100.00;99432.78;5064814;28;20582;-79
2023/12/24 01:47:01;;;;;;;3.20;2.13;;;;;;;1.53;100.00;99430.84;5068749;28;20040;-80
2023/12/24 01:49:27;;;;;;;3.88;2.53;;;;;;;1.53;100.00;99436.94;5056050;28;20029;-80
2023/12/24 01:51:54;;;;;;;5.25;2.45;;;;;;;1.61;100.00;99431.81;5067493;28;20098;-78
2023/12/24 01:54:20;;;;;;;4.80;2.20;;;;;;;1.62;100.00;99436.13;5067307;28;20655;-80
2023/12/24 01:56:46;;;;;;;5.32;3.10;;;;;;;1.74;100.00;99443.88;5053410;28;20246;-80
2023/12/24 01:59:13;;;;;;;4.07;2.72;;;;;;;1.37;100.00;99408.53;5055169;28;20024;-79
2023/12/24 02:01:38;;;;;;;7.45;3.10;;;;;;;1.52;100.00;99408.94;5068351;28;20433;-79
2023/12/24 02:04:04;;;;;;;5.30;2.75;;;;;;;1.69;100.00;99410.91;5057938;28;20037;-79
2023/12/24 02:06:32;;;;;;;4.47;2.75;;;;;;;1.70;100.00;99417.00;5048377;28;20029;-78
2023/12/24 02:08:57;;;;;;;6.00;2.50;;;;;;;1.72;100.00;99409.81;5050466;28;20119;-79
2023/12/24 02:11:22;;;;;;;5.13;2.40;;;;;;;1.89;100.00;99400.38;5047251;28;20121;-79
2023/12/24 02:13:48;;;;;;;4.35;2.42;;;;;;;2.06;100.00;99402.31;5050093;28;20081;-79
2023/12/24 02:16:19;;;;;;;7.50;1.80;;;;;;;1.89;100.00;99376.69;5067107;28;20174;-79
2023/12/24 02:18:44;;;;;;;4.28;2.42;;;;;;;1.62;100.00;99357.19;5069714;28;20034;-79
2023/12/24 02:21:10;;;;;;;3.70;2.45;;;;;;;1.40;100.00;99355.66;5047141;28;20112;-79
2023/12/24 02:23:35;;;;;;;3.97;2.78;;;;;;;1.60;100.00;99369.66;5062498;28;20044;-79
2023/12/24 02:26:06;;;;;;;6.55;2.53;;;;;;;1.73;100.00;99368.53;5050256;28;20032;-79
2023/12/24 02:28:39;;;;;;;4.70;2.28;;;;;;;1.73;100.00;99352.75;5048675;28;20029;-79
2023/12/24 02:31:07;;;;;;;5.05;2.60;;;;;;;1.80;100.00;99340.69;5068320;28;20107;-79
2023/12/24 02:33:37;;;;;;;6.07;2.80;;;;;;;1.81;100.00;99342.34;5070397;28;20681;-78
2023/12/24 02:36:06;;;;;;;6.57;3.33;;;;;;;1.89;100.00;99342.47;5053908;28;20040;-79
2023/12/24 02:38:37;;;;;;;5.00;2.83;;;;;;;1.86;100.00;99333.06;5050743;28;20123;-79
2023/12/24 02:41:03;;;;;;;5.25;3.03;;;;;;;1.80;100.00;99325.75;5071369;28;20044;-79
2023/12/24 02:43:30;;;;;;;6.90;3.13;;;;;;;1.81;100.00;99316.88;5064502;28;20028;-79
2023/12/24 02:45:55;;;;;;;8.18;4.10;;;;;;;1.73;100.00;99294.84;5053829;28;20028;-79
2023/12/24 02:48:20;;;;;;;6.30;3.80;;;;;;;1.87;100.00;99307.56;5058837;28;20480;-78
2023/12/24 02:50:46;;;;;;;7.30;3.50;;;;;;;1.89;100.00;99318.78;5070070;28;20410;-79
2023/12/24 02:53:11;;;;;;;8.43;3.28;;;;;;;2.06;100.00;99317.22;5067806;28;20283;-79
2023/12/24 02:55:36;;;;;;;7.15;3.30;;;;;;;2.02;100.00;99303.53;5067326;28;20614;-79
2023/12/24 02:58:02;;;;;;;7.47;3.67;;;;;;;2.17;100.00;99297.78;5070413;28;20138;-79
2023/12/24 03:00:27;;;;;;;5.38;3.10;;;;;;;2.01;100.00;99287.84;5050185;28;20283;-79
2023/12/24 03:02:53;;;;;;;8.90;3.42;;;;;;;2.00;100.00;99284.41;5084040;28;20068;-78
2023/12/24 03:05:18;;;;;;;6.55;3.15;;;;;;;2.04;100.00;99288.41;5082141;28;20402;-78
2023/12/24 03:07:43;;;;;;;8.45;4.07;;;;;;;2.09;100.00;99290.63;5073485;28;20166;-79
2023/12/24 03:10:09;;;;;;;7.25;3.78;;;;;;;2.16;100.00;99277.72;5073628;28;20035;-79
2023/12/24 03:12:34;;;;;;;6.38;3.75;;;;;;;2.24;100.00;99277.81;5073378;28;20646;-78
2023/12/24 03:14:59;;;;;;;7.23;3.37;;;;;;;2.15;100.00;99268.97;5062833;28;20111;-79
2023/12/24 03:17:26;;;;;;;8.13;3.90;;;;;;;2.23;100.00;99265.63;5084748;28;20275;-79
2023/12/24 03:19:51;;;;;;;5.82;3.72;;;;;;;2.28;100.00;99260.75;5090385;28;20034;-79
2023/12/24 03:22:16;;;;;;;5.47;2.35;;;;;;;2.16;100.00;99252.19;5087012;28;20071;-79
2023/12/24 03:24:42;;;;;;;7.18;3.45;;;;;;;2.35;100.00;99267.09;5070088;28;20081;-79
2023/12/24 03:27:08;;;;;;;5.93;3.03;;;;;;;2.29;100.00;99265.03;5070155;28;20028;-79
2023/12/24 03:29:34;;;;;;;5.78;3.33;;;;;;;2.43;100.00;99267.16;5073612;28;20042;-79
2023/12/24 03:31:59;;;;;;;5.82;2.95;;;;;;;2.53;100.00;99246.88;5058752;28;20044;-79
2023/12/24 03:34:24;;;;;;;7.13;3.73;;;;;;;2.44;100.00;99244.31;5073348;28;20122;-80
2023/12/24 03:36:50;;;;;;;7.40;3.25;;;;;;;2.39;100.00;99239.50;5061354;28;20283;-79
2023/12/24 03:39:15;;;;;;;6.40;3.42;;;;;;;2.50;100.00;99247.16;5073001;28;20046;-79
2023/12/24 03:41:41;;;;;;;7.53;2.90;;;;;;;2.58;100.00;99240.34;5074667;28;20516;-79
2023/12/24 03:44:06;;;;;;;5.45;2.95;;;;;;;2.72;100.00;99245.94;5078036;28;20475;-78
2023/12/24 03:46:32;;;;;;;6.22;3.53;;;;;;;2.69;100.00;99240.97;5066563;28;20020;-79
2023/12/24 03:48:58;;;;;;;6.70;3.80;;;;;;;2.74;100.00;99238.72;5050815;28;20036;-79
2023/12/24 03:51:24;;;;;;;8.30;3.90;;;;;;;2.73;100.00;99225.69;5069607;28;20035;-78
2023/12/24 03:53:49;;;;;;;7.43;3.45;;;;;;;2.90;100.00;99227.50;5072872;28;20028;-79
2023/12/24 03:56:15;;;;;;;9.73;4.13;;;;;;;2.85;100.00;99219.19;5073100;28;20058;-78
2023/12/24 03:58:41;;;;;;;6.80;3.53;;;;;;;2.82;100.00;99213.41;5082954;28;20024;-79
2023/12/24 04:01:11;;;;;;;6.68;3.45;;;;;;;2.82;100.00;99211.59;5064507;28;20039;-79
2023/12/24 04:03:40;;;;;;;11.43;4.32;;;;;;;2.94;100.00;99212.22;5062472;28;20300;-79
2023/12/24 04:06:10;;;;;;;9.60;3.83;;;;;;;3.01;100.00;99221.16;5075116;28;20479;-79
2023/12/24 04:08:36;;;;;;;9.77;3.97;;;;;;;2.99;100.00;99219.66;5052113;28;20036;-78
2023/12/24 04:11:02;;;;;;;10.63;4.53;;;;;;;3.03;100.00;99216.56;5069436;28;20040;-79
2023/12/24 04:13:27;;;;;;;8.43;3.90;;;;;;;3.01;100.00;99215.91;5066951;28;20024;-79
2023/12/24 04:15:52;;;;;;;12.03;4.07;;;;;;;3.06;100.00;99218.06;5048163;28;20041;-79
2023/12/24 04:18:18;;;;;;;8.02;3.70;;;;;;;3.26;100.00;99221.38;5063695;28;20288;-79
2023/12/24 04:20:43;;;;;;;13.38;3.70;;;;;;;3.07;100.00;99211.84;5077192;28;20036;-79
2023/12/24 04:23:09;;;;;;;10.95;3.90;;;;;;;3.11;100.00;99207.91;5071371;28;20020;-79
2023/12/24 04:25:34;;;;;;;8.43;4.07;;;;;;;3.25;100.00;99199.44;5076260;28;20059;-79
2023/12/24 04:28:00;;;;;;;16.80;4.65;;;;;;;3.20;100.00;99199.06;5064489;28;20020;-79
2023/12/24 04:30:26;;;;;;;9.13;3.75;;;;;;;3.37;100.00;99203.50;5062886;28;20028;-79
2023/12/24 04:32:51;;;;;;;10.73;4.17;;;;;;;3.33;100.00;99190.78;5074267;28;20032;-79
2023/12/24 04:35:16;;;;;;;7.97;3.72;;;;;;;3.35;100.00;99183.53;5078913;28;20288;-79
2023/12/24 04:37:42;;;;;;;12.87;4.00;;;;;;;3.48;100.00;99188.41;5062968;28;20021;-79
2023/12/24 04:40:08;;;;;;;13.77;4.65;;;;;;;3.58;100.00;99194.38;5065602;28;20040;-79
2023/12/24 04:42:33;;;;;;;;;;;;;;;3.66;100.00;99199.72;5061319;28;20029;-79
2023/12/24 04:44:59;;;;;;;7.03;3.53;;;;;;;3.74;100.00;99193.66;5067314;28;19909;-79
2023/12/24 04:47:24;;;;;;;9.82;3.92;;;;;;;3.66;100.00;99185.72;5072078;28;20032;-79
2023/12/24 04:49:50;;;;;;;10.17;4.63;;;;;;;3.82;100.00;99191.09;5074418;28;20044;-79
2023/12/24 04:52:15;;;;;;;9.25;3.80;;;;;;;3.89;100.00;99186.00;5059948;28;20273;-79
2023/12/24 04:54:41;;;;;;;6.03;3.00;;;;;;;4.00;100.00;99188.34;5069506;28;20032;-80
2023/12/24 04:57:06;;;;;;;11.87;4.63;;;;;;;4.17;100.00;99191.91;5065164;28;20032;-80
2023/12/24 04:59:32;;;;;;;11.57;5.00;;;;;;;4.15;100.00;99186.78;5066762;28;20808;-80
2023/12/24 05:01:58;;;;;;;26.65;7.13;;;;;;;3.93;100.00;99171.47;5066367;28;20535;-79
2023/12/24 05:04:26;;;;;;;;;;;;;;;3.93;100.00;99171.47;5072709;28;20020;-79
2023/12/24 05:06:51;;;;;;;12.25;5.18;;;;;;;4.13;100.00;99178.19;5074761;28;19913;-79
2023/12/24 05:09:17;;;;;;;15.32;4.85;;;;;;;4.41;100.00;99188.50;5064756;28;20052;-80
2023/12/24 05:11:42;;;;;;;3.20;1.40;;;;;;;4.85;100.00;99196.22;5063307;28;20484;-79
2023/12/24 05:14:07;;;;;;;1.55;0.90;;;;;;;5.35;100.00;99211.09;5067845;28;20058;-79
2023/12/24 05:16:33;;;;;;;2.17;0.60;;;;;;;5.68;100.00;99219.00;5083964;28;20129;-79
2023/12/24 05:18:58;;;;;;;0.60;0.43;;;;;;;6.11;100.00;99214.25;5072305;28;20047;-80
2023/12/24 05:21:24;;;;;;;2.33;0.55;;;;;;;6.37;100.00;99229.94;5071566;28;20312;-79
2023/12/24 05:23:49;;;;;;;1.97;0.50;;;;;;;6.53;100.00;99213.09;5079073;28;20040;-79
2023/12/24 05:26:14;;;;;;;0.73;0.73;;;;;;;6.52;100.00;99208.81;5072174;28;20031;-80
2023/12/24 05:28:40;;;;;;;5.57;0.80;;;;;;;6.64;100.00;99212.72;5079023;28;20068;-79
2023/12/24 05:31:05;;;;;;;1.33;0.80;;;;;;;6.69;100.00;99202.41;5082887;28;20012;-77
2023/12/24 05:33:30;;;;;;;2.40;1.17;;;;;;;6.80;100.00;99205.66;5060941;28;20058;-78
2023/12/24 05:35:57;;;;;;;2.27;0.67;;;;;;;6.74;100.00;99194.75;5086715;28;20437;-77
2023/12/24 05:38:22;;;;;;;1.95;0.70;;;;;;;6.80;100.00;99182.63;5080143;28;20050;-77
2023/12/24 05:40:48;;;;;;;1.40;0.80;;;;;;;6.90;100.00;99185.03;5062632;28;20028;-78
2023/12/24 05:43:13;;;;;;;3.43;1.40;;;;;;;6.96;100.00;99185.16;5054169;28;20024;-77
2023/12/24 05:45:39;;;;;;;2.10;0.60;;;;;;;6.98;100.00;99184.97;5049671;28;20271;-77
2023/12/24 05:48:04;;;;;;;1.37;0.80;;;;;;;7.06;100.00;99173.47;5048391;28;20485;-77
2023/12/24 05:50:30;;;;;;;1.25;0.73;;;;;;;7.08;100.00;99180.25;5076180;28;20281;-77
2023/12/24 05:52:55;;;;;;;1.77;0.98;;;;;;;7.10;100.00;99178.25;5070874;28;20028;-77
2023/12/24 05:55:21;;;;;;;0.80;0.70;;;;;;;7.16;100.00;99169.59;5081450;28;20457;-77
2023/12/24 05:57:46;;;;;;;3.78;0.88;;;;;;;7.21;100.00;99168.19;5086249;28;20028;-77
2023/12/24 06:00:12;;;;;;;3.10;1.10;;;;;;;7.18;100.00;99166.72;5060646;28;20126;-77
2023/12/24 06:02:41;;;;;;;4.00;1.33;;;;;;;7.19;100.00;99158.59;5066929;28;20038;-77
2023/12/24 06:05:06;;;;;;;2.05;0.47;;;;;;;7.20;100.00;99164.72;5065005;28;20130;-78
2023/12/24 06:07:32;;;;;;;0.73;0.47;;;;;;;7.25;100.00;99161.53;5082055;28;20082;-78
2023/12/24 06:09:57;;;;;;;0.80;0.65;;;;;;;7.28;100.00;99156.69;5069459;28;20123;-78
2023/12/24 06:12:23;;;;;;;0.60;0.40;;;;;;;7.30;100.00;99164.47;5068653;28;20043;-77
2023/12/24 06:14:48;;;;;;;2.33;0.53;;;;;;;7.30;100.00;99148.53;5068896;28;20032;-77
2023/12/24 06:17:13;;;;;;;1.60;0.50;;;;;;;7.29;100.00;99142.41;5092467;28;20116;-77
2023/12/24 06:19:39;;;;;;;1.33;0.30;;;;;;;7.36;100.00;99147.81;5080203;28;20032;-78
2023/12/24 06:22:05;;;;;;;0.85;0.40;;;;;;;7.31;100.00;99140.41;5090434;28;20445;-78
2023/12/24 06:24:30;;;;;;;1.27;0.55;;;;;;;7.33;100.00;99142.88;5067567;28;20032;-78
2023/12/24 06:26:56;;;;;;;0.73;0.40;;;;;;;7.46;100.00;99147.56;5066135;28;20478;-77
2023/12/24 06:29:21;;;;;;;2.00;0.50;;;;;;;7.48;100.00;99151.69;5073152;28;20024;-77
2023/12/24 06:31:46;;;;;;;1.40;0.57;;;;;;;7.40;100.00;99139.31;5063347;28;20313;-77
2023/12/24 06:34:12;;;;;;;1.73;0.70;;;;;;;7.44;100.00;99142.44;5059755;28;20008;-78
2023/12/24 06:36:56;;;;;;;1.02;0.30;;;;;;;7.51;100.00;99147.84;5075118;28;20087;-77
2023/12/24 06:39:40;;;;;;;2.20;0.60;;;;;;;7.50;100.00;99136.41;5071861;28;20059;-81
2023/12/24 06:42:05;;;;;;;2.10;0.65;;;;;;;7.57;100.00;99136.50;5049604;28;20121;-81
2023/12/24 06:44:30;;;;;;;1.47;0.70;;;;;;;7.53;100.00;99141.34;5078912;28;20035;-80
2023/12/24 06:46:56;;;;;;;1.40;0.93;;;;;;;7.64;100.00;99147.22;5082837;28;20039;-81
2023/12/24 06:49:21;;;;;;;1.70;0.83;;;;;;;7.64;100.00;99129.44;5074835;28;20032;-80
2023/12/24 06:51:47;;;;;;;1.17;0.70;;;;;;;7.70;100.00;99127.88;5070884;28;20028;-78
2023/12/24 06:54:12;;;;;;;1.30;0.90;;;;;;;7.74;100.00;99126.50;5080394;28;20028;-78
2023/12/24 06:56:37;;;;;;;0.50;0.43;;;;;;;7.61;100.00;99105.91;5059649;28;20062;-78
2023/12/24 06:59:03;;;;;;;1.57;0.70;;;;;;;7.72;100.00;99118.72;5073494;28;20065;-78
2023/12/24 07:01:28;;;;;;;1.20;0.50;;;;;;;7.77;100.00;99118.16;5071097;28;20043;-79
2023/12/24 07:03:53;;;;;;;0.63;0.50;;;;;;;7.77;100.00;99118.16;5064983;28;20020;-79
2023/12/24 07:06:19;;;;;;;0.47;0.32;;;;;;;7.76;100.00;99122.66;5071214;28;20035;-78
2023/12/24 07:08:44;;;;;;;0.28;0.17;;;;;;;7.81;100.00;99119.44;5087670;28;20128;-78
2023/12/24 07:11:10;;;;;;;0.77;0.40;;;;;;;7.70;100.00;99103.97;5075670;28;20085;-78
2023/12/24 07:13:35;;;;;;;0.40;0.30;;;;;;;7.80;100.00;99120.47;5082028;28;20093;-78
2023/12/24 07:16:00;;;;;;;1.57;0.27;;;;;;;7.71;100.00;99114.44;5083695;28;20040;-78
2023/12/24 07:18:26;;;;;;;0.10;0.10;;;;;;;7.85;100.00;99110.13;5081648;28;20111;-78
2023/12/24 07:20:52;;;;;;;0.17;0.17;;;;;;;7.84;100.00;99108.44;5072980;28;20021;-78
2023/12/24 07:23:17;;;;;;;0.68;0.40;;;;;;;7.76;100.00;99100.59;5070750;28;20043;-79
2023/12/24 07:25:42;;;;;;;0.13;0.13;;;;;;;7.83;100.00;99093.53;5091977;28;20028;-78
2023/12/24 07:28:08;;;;;;;0.93;0.30;;;;;;;7.86;100.00;99090.50;5068262;28;20327;-78
2023/12/24 07:30:33;;;;;;;0.20;0.10;;;;;;;7.85;100.00;99083.53;5075466;28;20399;-78
2023/12/24 07:32:59;;;;;;;0.40;0.20;;;;;;;7.89;100.00;99087.47;5067714;28;20031;-78
2023/12/24 07:35:24;;;;;;;0.50;0.20;;;;;;;7.92;100.00;99081.78;5063019;28;20067;-78
2023/12/24 07:37:49;;;;;;;0.47;0.40;;;;;;;7.92;100.00;99092.41;5058400;28;20036;-78
2023/12/24 07:40:15;;;;;;;0.73;0.40;;;;;;;7.86;100.00;99092.34;5063829;28;20534;-78
2023/12/24 07:42:41;;;;;;;0.20;0.20;;;;;;;7.91;100.00;99089.94;5062463;28;20028;-78
2023/12/24 07:45:07;;;;;;;;;;;;;;;7.89;100.00;99086.63;5068911;28;20040;-79
2023/12/24 07:47:32;;;;;;;0.65;0.50;;;;;;;7.93;100.00;99088.72;5056196;28;19912;-79
2023/12/24 07:49:58;;;;;;;0.47;0.20;;;;;;;7.93;100.00;99085.25;5044020;28;20041;-79
2023/12/24 07:52:23;;;;;;;0.47;0.40;;;;;;;8.01;100.00;99086.00;5061368;28;20387;-79
2023/12/24 07:54:48;;;;;;;1.43;0.40;;;;;;;7.95;100.00;99083.25;5075247;28;20297;-79
2023/12/24 07:57:14;;;;;;;0.37;0.30;;;;;;;7.94;100.00;99077.13;5073542;28;20022;-78
2023/12/24 07:59:40;;;;;;;0.30;0.30;;;;;;;7.98;100.00;99083.72;5063716;28;20032;-79
2023/12/24 08:02:06;;;;;;;1.15;0.50;;;;;;;8.03;100.00;99081.31;5089092;28;20386;-78
2023/12/24 08:04:31;;;;;;;1.10;0.55;;;;;;;7.99;100.00;99064.09;5072815;28;20038;-78
2023/12/24 08:06:57;;;;;;;1.17;0.30;;;;;;;8.06;100.00;99060.69;5088115;28;20035;-79
2023/12/24 08:09:23;;;;;;;0.50;0.50;;;;;;;8.06;100.00;99063.34;5091262;28;20028;-79
2023/12/24 08:11:48;;;;;;;0.63;0.47;;;;;;;8.02;100.00;99071.69;5080051;28;20035;-79
2023/12/24 08:14:13;;;;;;;0.50;0.40;;;;;;;8.10;100.00;99056.63;5090862;28;20070;-79
2023/12/24 08:16:39;;;;;;;0.87;0.37;;;;;;;8.14;100.00;99057.91;5078626;28;20339;-79
2023/12/24 08:19:05;;;;;;;0.50;0.50;;;;;;;8.03;100.00;99062.72;5091173;28;20032;-79
2023/12/24 08:21:31;;;;;;;0.40;0.32;;;;;;;8.20;100.00;99073.94;5083700;28;20376;-80
2023/12/24 08:23:56;;;;;;;0.25;0.25;;;;;;;8.21;100.00;99062.28;5061830;28;20040;-80
2023/12/24 08:26:21;;;;;;;0.20;0.20;;;;;;;8.20;100.00;99059.81;5050848;28;20024;-79
2023/12/24 08:28:47;;;;;;;0.30;0.30;;;;;;;8.06;100.00;99061.50;5049111;28;20078;-79
2023/12/24 08:31:13;;;;;;;0.37;0.30;;;;;;;8.18;100.00;99062.66;5051280;28;20040;-79
2023/12/24 08:33:38;;;;;;;0.60;0.60;;;;;;;8.27;100.00;99055.41;5059667;28;20662;-79
2023/12/24 08:36:04;;;;;;;0.30;0.20;;;;;;;8.21;100.00;99061.47;5042174;28;20043;-79
2023/12/24 08:38:29;;;;;;;1.27;0.28;;;;;;;8.26;100.00;99048.41;5051927;28;20511;-79
2023/12/24 08:40:55;;;;;;;0.60;0.30;;;;;;;8.29;100.00;99053.38;5062007;28;20115;-79
2023/12/24 08:43:20;;;;;;;0.20;0.20;;;;;;;8.24;100.00;99037.16;5070308;28;20051;-80
2023/12/24 08:45:45;;;;;;;0.67;0.40;;;;;;;8.28;100.00;99046.41;5071098;28;20082;-80
2023/12/24 08:48:11;;;;;;;0.50;0.50;;;;;;;8.28;100.00;99046.41;5052414;28;20057;-79
2023/12/24 08:50:36;;;;;;;0.63;0.47;;;;;;;8.31;100.00;99046.03;5053871;28;20078;-79
2023/12/24 08:53:02;;;;;;;0.63;0.53;;;;;;;8.27;100.00;99035.97;5070174;28;20066;-80
2023/12/24 08:55:27;;;;;;;0.10;0.10;;;;;;;8.38;100.00;99040.75;5060146;28;20357;-80
2023/12/24 08:57:52;;;;;;;1.23;0.50;;;;;;;8.28;100.00;99043.72;5066634;28;20111;-80
2023/12/24 09:00:18;;;;;;;0.50;0.20;;;;;;;8.35;100.00;99047.28;5078698;28;20024;-80
2023/12/24 09:02:44;;;;;;;0.40;0.40;;;;;;;8.45;100.00;99053.16;5068731;28;20466;-80
2023/12/24 09:05:10;;;;;;;0.50;0.38;;;;;;;8.41;100.00;99046.56;5076357;28;20126;-80
2023/12/24 09:07:36;;;;;;;0.10;0.10;;;;;;;8.52;100.00;99047.06;5052938;28;20412;-80
2023/12/24 09:10:03;;;;;;;0.30;0.30;;;;;;;8.49;100.00;99042.13;5045931;28;20033;-79
2023/12/24 09:12:29;;;;;;;0.73;0.25;;;;;;;8.54;100.00;99039.72;5049030;28;20040;-80
2023/12/24 09:15:17;;;;;;;0.17;0.17;;;;;;;8.59;100.00;99042.63;5041446;28;20034;-80
2023/12/24 09:17:43;;;;;;;0.32;0.30;;;;;;;8.43;100.00;99036.56;5070305;28;20553;-80
2023/12/24 09:20:09;;;;;;;0.75;0.47;;;;;;;8.48;100.00;99032.53;5048700;28;20032;-80
2023/12/24 09:22:34;;;;;;;0.68;0.40;;;;;;;8.55;100.00;99044.84;5069483;28;20063;-80
2023/12/24 09:25:00;;;;;;;0.83;0.53;;;;;;;8.64;100.00;99041.06;5061512;28;20472;-80
2023/12/24 09:27:25;;;;;;;0.60;0.38;;;;;;;8.51;100.00;99034.78;5061662;28;20090;-80
2023/12/24 09:29:51;;;;;;;1.30;0.70;;;;;;;8.45;100.00;99034.53;5057074;28;20036;-80
2023/12/24 09:32:16;;;;;;;0.20;0.20;;;;;;;8.60;100.00;99029.13;5052477;28;20438;-80
2023/12/24 09:34:44;;;;;;;2.17;1.27;;;;;;;8.59;100.00;99030.16;5049556;28;20325;-80
2023/12/24 09:37:10;;;;;;;0.60;0.30;;;;;;;8.57;100.00;99029.53;5044964;28;20048;-80
2023/12/24 09:39:36;;;;;;;2.05;0.40;;;;;;;8.68;100.00;99028.16;5054174;28;20028;-80
2023/12/24 09:42:01;;;;;;;0.97;0.40;;;;;;;8.68;100.00;99014.06;5057085;28;20071;-81
2023/12/24 09:44:26;;;;;;;1.50;0.30;;;;;;;8.67;100.00;99005.25;5073169;28;20040;-80
2023/12/24 09:46:52;;;;;;;0.70;0.40;;;;;;;8.64;100.00;99005.66;5078082;28;20033;-80
2023/12/24 09:49:17;;;;;;;1.10;0.30;;;;;;;8.79;100.00;99003.72;5069873;28;20036;-80
2023/12/24 09:51:43;;;;;;;1.17;0.35;;;;;;;8.73;100.00;99004.47;5074679;28;20036;-80
2023/12/24 09:54:09;;;;;;;2.30;0.40;;;;;;;8.72;100.00;99010.00;5064995;28;20046;-81
2023/12/24 09:56:34;;;;;;;0.43;0.30;;;;;;;8.82;100.00;99005.97;5067516;28;20293;-80
2023/12/24 09:59:00;;;;;;;0.30;0.30;;;;;;;8.82;100.00;99005.16;5069432;28;20442;-80
2023/12/24 10:01:25;;;;;;;1.02;0.40;;;;;;;8.84;100.00;99005.78;5056686;28;20274;-80
2023/12/24 10:03:51;;;;;;;0.22;0.22;;;;;;;8.88;100.00;99009.72;5053370;28;20048;-80
2023/12/24 10:06:17;;;;;;;0.77;0.67;;;;;;;8.86;100.00;99007.25;5073747;28;20044;-80
2023/12/24 10:08:43;;;;;;;1.17;0.57;;;;;;;8.95;100.00;98989.28;5073411;28;20036;-80
2023/12/24 10:11:23;;;;;;;2.23;0.80;;;;;;;8.83;100.00;99004.16;5064514;28;20036;-80
2023/12/24 10:14:00;;;;;;;0.75;0.60;;;;;;;8.86;100.00;99001.91;5053655;28;20033;-84
2023/12/24 10:16:26;;;;;;;0.70;0.60;;;;;;;8.86;100.00;99003.75;5062935;28;20028;-83
2023/12/24 10:18:53;;;;;;;0.70;0.60;;;;;;;8.92;100.00;98995.00;5051908;28;20099;-84
2023/12/24 10:21:19;;;;;;;1.15;0.60;;;;;;;8.92;100.00;99004.81;5071611;28;20035;-83
2023/12/24 10:23:45;;;;;;;1.05;0.65;;;;;;;8.93;100.00;98998.50;5042497;28;20642;-81
2023/12/24 10:26:12;;;;;;;0.70;0.70;;;;;;;8.88;100.00;98999.88;5072809;28;20044;-81
2023/12/24 10:28:51;;;;;;;1.40;0.90;;;;;;;8.93;100.00;98995.81;5072879;28;20043;-81
2023/12/24 10:31:17;;;;;;;1.50;0.80;;;;;;;8.96;100.00;98995.44;5055567;28;20062;-81
2023/12/24 10:33:43;;;;;;;1.52;1.27;;;;;;;8.99;100.00;98995.03;5056011;28;20016;-81
2023/12/24 10:36:08;;;;;;;1.90;1.07;;;;;;;9.01;100.00;98996.50;5081892;28;20032;-81
2023/12/24 10:38:35;;;;;;;1.80;1.00;;;;;;;8.95;100.00;98991.13;5047134;28;20362;-82
2023/12/24 10:41:01;;;;;;;1.90;1.08;;;;;;;9.01;100.00;98991.19;5063558;28;20126;-81
2023/12/24 10:43:26;;;;;;;;;;;;;;;9.14;100.00;98976.31;5064424;28;20086;-81
2023/12/24 10:45:52;;;;;;;1.77;1.13;;;;;;;8.95;100.00;98956.53;5055878;28;20322;-82
2023/12/24 10:48:17;;;;;;;1.40;1.10;;;;;;;9.10;100.00;98951.91;5057132;28;20024;-81
2023/12/24 10:50:43;;;;;;;4.00;1.30;;;;;;;8.97;100.00;98947.34;5072214;28;20064;-81
2023/12/24 10:53:09;;;;;;;;;;;;;;;9.07;100.00;98945.13;5074659;28;20036;-81
2023/12/24 10:55:36;;;;;;;7.70;2.45;;;;;;;9.10;100.00;98938.59;5071058;28;20379;-81
2023/12/24 10:58:11;;;;;;;10.85;3.05;;;;;;;9.17;100.00;98947.44;5055352;28;20033;-81
2023/12/24 11:00:36;;;;;;;5.63;2.78;;;;;;;9.07;100.00;98945.13;5048714;28;20492;-82
2023/12/24 11:03:02;;;;;;;11.85;3.30;;;;;;;9.11;100.00;98955.38;5071170;28;20070;-82
2023/12/24 11:05:39;;;;;;;10.43;2.92;;;;;;;9.08;100.00;98954.78;5055324;28;20036;-81
2023/12/24 11:08:23;;;;;;;10.95;3.50;;;;;;;9.13;100.00;98956.00;5071619;28;20040;-81
2023/12/24 11:10:55;;;;;;;8.07;3.00;;;;;;;9.20;100.00;98971.03;5066084;28;20037;-81
2023/12/24 11:13:30;;;;;;;16.92;3.47;;;;;;;9.21;100.00;98971.84;5070814;28;20028;-81
2023/12/24 11:15:55;;;;;;;9.75;4.20;;;;;;;9.15;100.00;98962.78;5050410;28;20029;-81
2023/12/24 11:18:46;;;;;;;11.55;4.25;;;;;;;9.18;100.00;98954.41;5054482;28;20673;-81
2023/12/24 11:21:16;;;;;;;11.25;4.30;;;;;;;9.23;100.00;98949.31;5059024;28;20068;-84
2023/12/24 11:24:07;;;;;;;11.35;5.00;;;;;;;9.15;100.00;98948.66;5048191;28;20028;-84
2023/12/24 11:26:33;;;;;;;10.88;4.50;;;;;;;9.19;100.00;98958.72;5073803;28;20028;-83
2023/12/24 11:28:59;;;;;;;11.93;4.57;;;;;;;9.21;100.00;98940.69;5091104;28;20032;-82